Weather reports worldwide

Advertisment
South Newington, United Kingdom (99166): temperature & dewpoint: 04.12.2018 03:00:00 - 10.12.2018 03:00:00 (GMT)South Newington, United Kingdom (99166): temperature -20cm & temperature -100cm: 04.12.2018 03:00:00 - 10.12.2018 03:00:00 (GMT)South Newington, United Kingdom (99166): precipitation: 04.12.2018 03:00:00 - 10.12.2018 03:00:00 (GMT)
Date & Time tt [°C] td [°C] tt -20cm [°C] tt -100cm [°C] rr [mm]
10.12.2018 03:00:00 7,3 4,5 - - 0,0
10.12.2018 02:00:00 7,2 4,6 - - 0,0
10.12.2018 01:00:00 6,0 4,1 - - 0,0
10.12.2018 00:00:00 6,3 4,2 - - 0,0
09.12.2018 23:00:00 6,1 3,7 - - 0,0
09.12.2018 22:00:00 6,5 3,9 - - 0,0
09.12.2018 21:00:00 6,8 4,0 - - 0,0
09.12.2018 20:00:00 7,4 4,2 - - 0,0
09.12.2018 19:00:00 7,8 4,3 - - 0,0
09.12.2018 18:00:00 7,8 5,1 - - 0,2
09.12.2018 17:00:00 7,7 5,0 - - 0,0
09.12.2018 16:00:00 7,1 4,8 - - 0,0
09.12.2018 15:00:00 7,9 5,1 - - 0,2
09.12.2018 14:00:00 9,1 5,1 - - 0,0
09.12.2018 13:00:00 9,0 5,1 - - 0,0
09.12.2018 12:00:00 9,5 5,6 - - 0,0
09.12.2018 11:00:00 9,0 6,2 - - 0,0
09.12.2018 10:00:00 8,1 6,8 - - 0,2
09.12.2018 09:00:00 7,7 6,7 8,5 10,0 2,4
09.12.2018 08:00:00 8,5 6,2 - - 0,0
09.12.2018 07:00:00 8,8 5,6 - - 0,0
09.12.2018 06:00:00 8,1 6,1 - - 0,4
09.12.2018 05:00:00 8,6 5,1 - - 0,0
09.12.2018 04:00:00 8,8 4,4 - - 0,0
09.12.2018 03:00:00 8,4 4,2 - - 0,0
09.12.2018 02:00:00 8,4 3,7 - - 0,0
09.12.2018 01:00:00 8,0 3,9 - - 0,0
09.12.2018 00:00:00 8,5 4,3 - - 0,0
08.12.2018 23:00:00 8,2 4,6 - - 0,2
08.12.2018 22:00:00 8,4 4,1 - - 0,0
08.12.2018 21:00:00 8,6 4,3 - - 0,0
08.12.2018 20:00:00 8,6 4,1 - - 0,0
08.12.2018 19:00:00 9,0 4,6 - - 0,0
08.12.2018 18:00:00 9,7 4,9 - - 0,0
08.12.2018 17:00:00 10,8 4,9 - - 0,0
08.12.2018 16:00:00 10,9 6,5 - - 0,0
08.12.2018 15:00:00 10,7 8,2 - - 0,0
08.12.2018 14:00:00 10,1 9,1 - - 0,2
08.12.2018 13:00:00 10,1 8,1 - - 0,0
08.12.2018 12:00:00 10,6 5,2 - - 0,0
08.12.2018 11:00:00 10,3 3,9 - - 0,0
08.12.2018 10:00:00 8,9 4,1 - - 0,0
08.12.2018 09:00:00 8,4 4,0 8,7 10,0 0,0
08.12.2018 08:00:00 8,0 3,3 - - 0,0
08.12.2018 07:00:00 8,3 2,9 - - 0,0
08.12.2018 06:00:00 8,6 3,3 - - 0,0
08.12.2018 05:00:00 8,4 3,3 - - 0,0
08.12.2018 04:00:00 8,6 3,4 - - 0,0
08.12.2018 03:00:00 8,4 4,0 - - 0,0
08.12.2018 02:00:00 8,3 4,1 - - 0,0
08.12.2018 01:00:00 7,7 3,4 - - 0,0
08.12.2018 00:00:00 6,7 2,9 - - 0,0
07.12.2018 23:00:00 6,8 3,0 - - 0,0
07.12.2018 22:00:00 6,2 2,6 - - 0,0
07.12.2018 21:00:00 6,3 2,2 - - 0,0
07.12.2018 20:00:00 5,8 1,6 - - 0,0
07.12.2018 19:00:00 5,3 1,2 - - 0,0
07.12.2018 18:00:00 6,0 1,6 - - 0,0
07.12.2018 17:00:00 5,9 0,9 - - 0,0
07.12.2018 16:00:00 6,1 2,0 - - 0,0
07.12.2018 15:00:00 5,5 1,9 - - 0,4
07.12.2018 14:00:00 8,6 2,9 - - 0,0
07.12.2018 13:00:00 9,0 3,0 - - 0,0
07.12.2018 12:00:00 9,2 4,5 - - 0,0
07.12.2018 11:00:00 9,0 7,6 - - 0,0
07.12.2018 10:00:00 8,9 7,1 - - 1,2
07.12.2018 09:00:00 11,5 10,3 8,7 10,0 4,6
07.12.2018 08:00:00 11,9 11,0 - - 1,8
07.12.2018 07:00:00 12,0 11,0 - - 1,4
07.12.2018 06:00:00 11,9 11,1 - - 1,0
07.12.2018 05:00:00 12,2 11,3 - - 0,4
07.12.2018 04:00:00 12,4 11,4 - - 0,2
07.12.2018 03:00:00 12,4 11,6 - - 0,2
07.12.2018 02:00:00 12,3 11,7 - - 0,0
07.12.2018 01:00:00 12,4 11,5 - - 0,0
07.12.2018 00:00:00 12,1 11,4 - - 0,0
06.12.2018 23:00:00 12,2 11,3 - - 0,0
06.12.2018 22:00:00 12,1 11,4 - - 0,0
06.12.2018 21:00:00 12,1 11,3 - - 0,0
06.12.2018 20:00:00 12,2 11,2 - - 0,0
06.12.2018 19:00:00 12,4 11,1 - - 0,0
06.12.2018 18:00:00 12,3 11,2 - - 0,0
06.12.2018 17:00:00 12,0 11,0 - - 0,2
06.12.2018 16:00:00 11,6 10,8 - - 0,0
06.12.2018 15:00:00 11,6 10,3 - - 0,0
06.12.2018 14:00:00 11,5 9,5 - - 0,0
06.12.2018 13:00:00 11,5 8,7 - - 0,0
06.12.2018 12:00:00 11,4 8,9 - - 0,0
06.12.2018 11:00:00 11,3 10,1 - - 0,2
06.12.2018 10:00:00 11,0 9,9 - - 0,0
06.12.2018 09:00:00 10,9 9,7 8,2 10,2 0,0
06.12.2018 08:00:00 10,7 9,5 - - 0,0
06.12.2018 07:00:00 10,4 9,4 - - 0,0
06.12.2018 06:00:00 9,7 9,0 - - 0,0
06.12.2018 05:00:00 8,5 7,7 - - 0,0
06.12.2018 04:00:00 8,8 8,5 - - 0,0
06.12.2018 03:00:00 9,6 8,7 - - 0,0
06.12.2018 02:00:00 9,8 9,1 - - 0,0
06.12.2018 01:00:00 10,5 9,7 - - 0,0
06.12.2018 00:00:00 11,0 10,1 - - 0,0
05.12.2018 23:00:00 11,1 10,4 - - 0,0
05.12.2018 22:00:00 11,4 10,5 - - 0,0
05.12.2018 21:00:00 11,3 10,7 - - 0,0
05.12.2018 20:00:00 11,3 10,6 - - 0,0
05.12.2018 19:00:00 11,3 10,7 - - 0,2
05.12.2018 18:00:00 11,1 10,7 - - 0,2
05.12.2018 17:00:00 11,3 10,8 - - 0,8
05.12.2018 16:00:00 11,3 10,7 - - 1,2
05.12.2018 15:00:00 11,5 10,8 - - 1,6
05.12.2018 14:00:00 11,5 10,9 - - 1,0
05.12.2018 13:00:00 11,4 11,0 - - 0,2
05.12.2018 12:00:00 10,9 10,7 - - 0,0
05.12.2018 11:00:00 10,1 10,1 - - 0,0
05.12.2018 10:00:00 8,3 8,3 - - 0,4
05.12.2018 09:00:00 7,4 7,3 7,9 10,2 0,2
05.12.2018 08:00:00 6,7 6,5 - - 0,0
05.12.2018 07:00:00 6,4 6,2 - - 0,2
05.12.2018 06:00:00 6,4 6,2 - - 0,0
05.12.2018 05:00:00 5,8 5,7 - - 0,2
05.12.2018 04:00:00 5,3 5,2 - - 0,6
05.12.2018 03:00:00 4,4 4,2 - - 0,4
05.12.2018 02:00:00 4,0 3,6 - - 1,2
05.12.2018 01:00:00 3,6 3,2 - - 2,2
05.12.2018 00:00:00 3,7 2,9 - - 1,6
04.12.2018 23:00:00 4,0 3,1 - - 1,2
04.12.2018 22:00:00 3,9 3,1 - - 0,6
04.12.2018 21:00:00 4,3 2,8 - - 0,4
04.12.2018 20:00:00 4,9 3,2 - - 0,2
04.12.2018 19:00:00 4,4 4,2 - - 0,0
04.12.2018 18:00:00 3,7 3,3 - - 0,0
04.12.2018 17:00:00 3,9 3,4 - - 0,0
04.12.2018 16:00:00 4,6 4,0 - - 0,0
04.12.2018 15:00:00 4,9 3,8 - - 0,0
04.12.2018 14:00:00 5,7 4,2 - - 0,0
04.12.2018 13:00:00 6,0 4,2 - - 0,0
04.12.2018 12:00:00 6,5 3,5 - - 0,0
04.12.2018 11:00:00 6,0 4,8 - - 0,2
04.12.2018 10:00:00 1,1 1,0 - - 0,0
04.12.2018 09:00:00 -1,4 -1,5 8,7 10,2 0,0
04.12.2018 08:00:00 -1,9 -2,1 - - 0,0
04.12.2018 07:00:00 -1,2 -1,3 - - 0,0
04.12.2018 06:00:00 -1,0 -1,1 - - 0,0
04.12.2018 05:00:00 -0,6 -0,7 - - 0,0
04.12.2018 04:00:00 -0,8 -0,9 - - 0,0
04.12.2018 03:00:00 -0,7 -0,9 - - 0,0

tt = temperature
td = dewpoint
tt -20cm = temperature -20cm
tt -100cm = temperature -100cm
rr = precipitation

Next stations